Kezdőlap
METAR-TAF:

METAR-TAF

Repülőterek :

Sherbrooke, Québec, Kanada

földrajzi szélesség: 45-24N, földrajzi hosszúság: 071-53W, magasság: 170 m

Jelenlegi meteorológiai megfigyelések

A jelentés 13 órával és 0 perccel ezelõtt készült, 01:00 UTC
Hőmérséklet -15°C
Páratartalom 71%
Légköri nyomás 1025 hPa

METAR: CYSC 210100Z AUTO /////KT M15/M19 A3026 RMK WND MISG CLD MISG WX MISG VIS MISG PCPN MISG ICG MISG SLP272

Idő: 09:00 (14:00 UTC)

Előrejelzés

A jelentés 20 órával és 22 perccel ezelõtt készült, 17:38 UTC
Az előrejelzés 20-én 18 óra UTC és 21-én 03 óra UTC között érvényes
Nyugati szél 8 kt
Látótávolság: 10 km
Kevés felhő 2500 lábon
Szórványos felhőzet 22000 lábon

TAF: CYSC 201738Z 2018/2103 27008KT P6SM FEW025 SCT220 RMK FCST BASED ON AUTO OBS. NXT FCST BY 210000Z

Meteorológiai megfigyelések és előrejelzések több, mint 4000 repülőtéren (METAR és TAF jelentéseket).

A térképen piros és sárga pontok jelzik az elérhető meteorológiai állomásokat.

Mozgassa az egeret a pont fölött, hogy megjelenjen az állomás neve.

Azután kattintson az időjárási megfigyelések és előrejelzések megtekintéséhez.

A térkép megváltoztatása: kattintson a fekete keresztel jelölt zöld gombra ráközelítéshez, a vonallal jelölt zöld gombra távolításhoz, vagy a zöld nyilakra a szomszédos térképek eléréséhez.


METAR-TAF: